sensor_id;sensor_type;location;lat;lon;timestamp;temperature;humidity
22114;DHT22;11223;49.968;9.062;2023-05-13T00:00:49;9.50;99.90
22114;DHT22;11223;49.968;9.062;2023-05-13T00:03:15;9.60;99.90
22114;DHT22;11223;49.968;9.062;2023-05-13T00:05:41;9.60;99.90
22114;DHT22;11223;49.968;9.062;2023-05-13T00:08:06;9.60;99.90
22114;DHT22;11223;49.968;9.062;2023-05-13T00:10:33;9.60;99.90
22114;DHT22;11223;49.968;9.062;2023-05-13T00:12:59;9.60;99.90
22114;DHT22;11223;49.968;9.062;2023-05-13T00:15:25;9.70;99.90
22114;DHT22;11223;49.968;9.062;2023-05-13T00:17:50;9.60;99.90
22114;DHT22;11223;49.968;9.062;2023-05-13T00:20:16;9.70;99.90
22114;DHT22;11223;49.968;9.062;2023-05-13T00:22:41;9.70;99.90
22114;DHT22;11223;49.968;9.062;2023-05-13T00:25:07;9.70;99.90
22114;DHT22;11223;49.968;9.062;2023-05-13T00:27:33;9.70;99.90
22114;DHT22;11223;49.968;9.062;2023-05-13T00:29:58;9.70;99.90
22114;DHT22;11223;49.968;9.062;2023-05-13T00:32:24;9.70;99.90
22114;DHT22;11223;49.968;9.062;2023-05-13T00:34:50;9.70;99.90
22114;DHT22;11223;49.968;9.062;2023-05-13T00:37:16;9.70;99.90
22114;DHT22;11223;49.968;9.062;2023-05-13T00:39:41;9.70;99.90
22114;DHT22;11223;49.968;9.062;2023-05-13T00:42:07;9.80;99.90
22114;DHT22;11223;49.968;9.062;2023-05-13T00:44:35;9.80;99.90
22114;DHT22;11223;49.968;9.062;2023-05-13T00:47:01;9.80;99.90
22114;DHT22;11223;49.968;9.062;2023-05-13T00:49:26;9.90;99.90
22114;DHT22;11223;49.968;9.062;2023-05-13T00:51:52;9.90;99.90
22114;DHT22;11223;49.968;9.062;2023-05-13T00:54:19;9.90;99.90
22114;DHT22;11223;49.968;9.062;2023-05-13T00:56:45;9.90;99.90
22114;DHT22;11223;49.968;9.062;2023-05-13T00:59:10;9.90;99.90
22114;DHT22;11223;49.968;9.062;2023-05-13T01:01:59;9.80;99.90
22114;DHT22;11223;49.968;9.062;2023-05-13T01:05:16;9.80;99.90
22114;DHT22;11223;49.968;9.062;2023-05-13T01:07:45;9.80;99.90
22114;DHT22;11223;49.968;9.062;2023-05-13T01:13:00;9.70;99.90
22114;DHT22;11223;49.968;9.062;2023-05-13T01:15:28;9.70;99.90
22114;DHT22;11223;49.968;9.062;2023-05-13T01:20:26;9.70;99.90
22114;DHT22;11223;49.968;9.062;2023-05-13T01:22:52;9.70;99.90
22114;DHT22;11223;49.968;9.062;2023-05-13T01:25:17;9.70;99.90
22114;DHT22;11223;49.968;9.062;2023-05-13T01:27:43;9.70;99.90
22114;DHT22;11223;49.968;9.062;2023-05-13T01:30:09;9.60;99.90
22114;DHT22;11223;49.968;9.062;2023-05-13T01:32:36;9.60;99.90
22114;DHT22;11223;49.968;9.062;2023-05-13T01:35:03;9.60;99.90
22114;DHT22;11223;49.968;9.062;2023-05-13T01:37:29;9.60;99.90
22114;DHT22;11223;49.968;9.062;2023-05-13T01:39:55;9.50;99.90
22114;DHT22;11223;49.968;9.062;2023-05-13T01:42:22;9.60;99.90
22114;DHT22;11223;49.968;9.062;2023-05-13T01:44:50;9.50;99.90
22114;DHT22;11223;49.968;9.062;2023-05-13T01:47:15;9.50;99.90
22114;DHT22;11223;49.968;9.062;2023-05-13T01:49:41;9.50;99.90
22114;DHT22;11223;49.968;9.062;2023-05-13T01:52:07;9.50;99.90
22114;DHT22;11223;49.968;9.062;2023-05-13T01:54:32;9.50;99.90
22114;DHT22;11223;49.968;9.062;2023-05-13T01:56:58;9.40;99.90
22114;DHT22;11223;49.968;9.062;2023-05-13T01:59:23;9.40;99.90
22114;DHT22;11223;49.968;9.062;2023-05-13T02:01:49;9.40;99.90
22114;DHT22;11223;49.968;9.062;2023-05-13T02:04:15;9.40;99.90
22114;DHT22;11223;49.968;9.062;2023-05-13T02:06:41;9.30;99.90
22114;DHT22;11223;49.968;9.062;2023-05-13T02:09:06;9.30;99.90
22114;DHT22;11223;49.968;9.062;2023-05-13T02:11:32;9.30;99.90
22114;DHT22;11223;49.968;9.062;2023-05-13T02:13:58;9.30;99.90
22114;DHT22;11223;49.968;9.062;2023-05-13T02:16:23;9.30;99.90
22114;DHT22;11223;49.968;9.062;2023-05-13T02:18:49;9.30;99.90
22114;DHT22;11223;49.968;9.062;2023-05-13T02:21:15;9.20;99.90
22114;DHT22;11223;49.968;9.062;2023-05-13T02:23:41;9.20;99.90
22114;DHT22;11223;49.968;9.062;2023-05-13T02:26:06;9.20;99.90
22114;DHT22;11223;49.968;9.062;2023-05-13T02:28:32;9.20;99.90
22114;DHT22;11223;49.968;9.062;2023-05-13T02:30:57;9.10;99.90
22114;DHT22;11223;49.968;9.062;2023-05-13T02:33:23;9.10;99.90
22114;DHT22;11223;49.968;9.062;2023-05-13T02:35:49;9.10;99.90
22114;DHT22;11223;49.968;9.062;2023-05-13T02:38:14;9.00;99.90
22114;DHT22;11223;49.968;9.062;2023-05-13T02:40:40;9.00;99.90
22114;DHT22;11223;49.968;9.062;2023-05-13T02:43:05;9.00;99.90
22114;DHT22;11223;49.968;9.062;2023-05-13T02:45:32;8.90;99.90
22114;DHT22;11223;49.968;9.062;2023-05-13T02:47:57;8.90;99.90
22114;DHT22;11223;49.968;9.062;2023-05-13T02:50:23;8.80;99.90
22114;DHT22;11223;49.968;9.062;2023-05-13T02:52:48;8.80;99.90
22114;DHT22;11223;49.968;9.062;2023-05-13T02:55:14;8.70;99.90
22114;DHT22;11223;49.968;9.062;2023-05-13T02:57:41;8.80;99.90
22114;DHT22;11223;49.968;9.062;2023-05-13T03:00:08;8.70;99.90
22114;DHT22;11223;49.968;9.062;2023-05-13T03:02:36;8.70;99.90
22114;DHT22;11223;49.968;9.062;2023-05-13T03:05:02;8.70;99.90
22114;DHT22;11223;49.968;9.062;2023-05-13T03:07:28;8.60;99.90
22114;DHT22;11223;49.968;9.062;2023-05-13T03:09:53;8.60;99.90
22114;DHT22;11223;49.968;9.062;2023-05-13T03:12:19;8.60;99.90
22114;DHT22;11223;49.968;9.062;2023-05-13T03:14:45;8.50;99.90
22114;DHT22;11223;49.968;9.062;2023-05-13T03:17:11;8.50;99.90
22114;DHT22;11223;49.968;9.062;2023-05-13T03:19:37;8.40;99.90
22114;DHT22;11223;49.968;9.062;2023-05-13T03:22:04;8.40;99.90
22114;DHT22;11223;49.968;9.062;2023-05-13T03:24:30;8.40;99.90
22114;DHT22;11223;49.968;9.062;2023-05-13T03:26:56;8.40;99.90
22114;DHT22;11223;49.968;9.062;2023-05-13T03:29:22;8.30;99.90
22114;DHT22;11223;49.968;9.062;2023-05-13T03:31:48;8.30;99.90
22114;DHT22;11223;49.968;9.062;2023-05-13T03:34:14;8.30;99.90
22114;DHT22;11223;49.968;9.062;2023-05-13T03:36:40;8.30;99.90
22114;DHT22;11223;49.968;9.062;2023-05-13T03:39:05;8.30;99.90
22114;DHT22;11223;49.968;9.062;2023-05-13T03:41:31;8.30;99.90
22114;DHT22;11223;49.968;9.062;2023-05-13T03:43:57;8.20;99.90
22114;DHT22;11223;49.968;9.062;2023-05-13T03:46:22;8.30;99.90
22114;DHT22;11223;49.968;9.062;2023-05-13T03:48:51;8.20;99.90
22114;DHT22;11223;49.968;9.062;2023-05-13T03:51:16;8.20;99.90
22114;DHT22;11223;49.968;9.062;2023-05-13T03:53:42;8.30;99.90
22114;DHT22;11223;49.968;9.062;2023-05-13T03:56:08;8.20;99.90
22114;DHT22;11223;49.968;9.062;2023-05-13T03:58:33;8.20;99.90
22114;DHT22;11223;49.968;9.062;2023-05-13T04:00:59;8.20;99.90
22114;DHT22;11223;49.968;9.062;2023-05-13T04:03:24;8.20;99.90
22114;DHT22;11223;49.968;9.062;2023-05-13T04:05:51;8.20;99.90
22114;DHT22;11223;49.968;9.062;2023-05-13T04:08:16;8.20;99.90
22114;DHT22;11223;49.968;9.062;2023-05-13T04:10:42;8.20;99.90
22114;DHT22;11223;49.968;9.062;2023-05-13T04:13:08;8.20;99.90
22114;DHT22;11223;49.968;9.062;2023-05-13T04:15:33;8.20;99.90
22114;DHT22;11223;49.968;9.062;2023-05-13T04:17:59;8.20;99.90
22114;DHT22;11223;49.968;9.062;2023-05-13T04:20:25;8.20;99.90
22114;DHT22;11223;49.968;9.062;2023-05-13T04:22:51;8.20;99.90
22114;DHT22;11223;49.968;9.062;2023-05-13T04:25:16;8.20;99.90
22114;DHT22;11223;49.968;9.062;2023-05-13T04:27:42;8.20;99.90
22114;DHT22;11223;49.968;9.062;2023-05-13T04:30:08;8.20;99.90
22114;DHT22;11223;49.968;9.062;2023-05-13T04:32:34;8.20;99.90
22114;DHT22;11223;49.968;9.062;2023-05-13T04:35:00;8.20;99.90
22114;DHT22;11223;49.968;9.062;2023-05-13T04:37:26;8.20;99.90
22114;DHT22;11223;49.968;9.062;2023-05-13T04:39:52;8.30;99.90
22114;DHT22;11223;49.968;9.062;2023-05-13T04:42:17;8.30;99.90
22114;DHT22;11223;49.968;9.062;2023-05-13T04:44:43;8.30;99.90
22114;DHT22;11223;49.968;9.062;2023-05-13T04:47:09;8.30;99.90
22114;DHT22;11223;49.968;9.062;2023-05-13T04:49:35;8.30;99.90
22114;DHT22;11223;49.968;9.062;2023-05-13T04:52:01;8.40;99.90
22114;DHT22;11223;49.968;9.062;2023-05-13T04:54:27;8.40;99.90
22114;DHT22;11223;49.968;9.062;2023-05-13T04:56:53;8.40;99.90
22114;DHT22;11223;49.968;9.062;2023-05-13T04:59:19;8.50;99.90
22114;DHT22;11223;49.968;9.062;2023-05-13T05:01:44;8.40;99.90
22114;DHT22;11223;49.968;9.062;2023-05-13T05:04:11;8.40;99.90
22114;DHT22;11223;49.968;9.062;2023-05-13T05:06:37;8.40;99.90
22114;DHT22;11223;49.968;9.062;2023-05-13T05:09:02;8.40;99.90
22114;DHT22;11223;49.968;9.062;2023-05-13T05:11:28;8.40;99.90
22114;DHT22;11223;49.968;9.062;2023-05-13T05:13:54;8.40;99.90
22114;DHT22;11223;49.968;9.062;2023-05-13T05:16:20;8.40;99.90
22114;DHT22;11223;49.968;9.062;2023-05-13T05:18:45;8.50;99.90
22114;DHT22;11223;49.968;9.062;2023-05-13T05:21:11;8.60;99.90
22114;DHT22;11223;49.968;9.062;2023-05-13T05:23:37;8.60;99.90
22114;DHT22;11223;49.968;9.062;2023-05-13T05:26:03;8.70;99.90
22114;DHT22;11223;49.968;9.062;2023-05-13T05:28:29;8.90;99.90
22114;DHT22;11223;49.968;9.062;2023-05-13T05:30:55;9.00;99.90
22114;DHT22;11223;49.968;9.062;2023-05-13T05:33:21;9.10;99.90
22114;DHT22;11223;49.968;9.062;2023-05-13T05:35:46;9.20;99.90
22114;DHT22;11223;49.968;9.062;2023-05-13T05:38:12;9.40;99.90
22114;DHT22;11223;49.968;9.062;2023-05-13T05:40:42;9.40;99.90
22114;DHT22;11223;49.968;9.062;2023-05-13T05:43:08;9.50;99.90
22114;DHT22;11223;49.968;9.062;2023-05-13T05:45:35;9.60;99.90
22114;DHT22;11223;49.968;9.062;2023-05-13T05:48:01;9.70;99.90
22114;DHT22;11223;49.968;9.062;2023-05-13T05:50:27;9.80;99.90
22114;DHT22;11223;49.968;9.062;2023-05-13T05:52:53;9.90;99.90
22114;DHT22;11223;49.968;9.062;2023-05-13T05:55:19;10.00;99.90
22114;DHT22;11223;49.968;9.062;2023-05-13T05:57:45;10.10;99.90
22114;DHT22;11223;49.968;9.062;2023-05-13T06:00:11;10.20;99.90
22114;DHT22;11223;49.968;9.062;2023-05-13T06:02:37;10.30;99.90
22114;DHT22;11223;49.968;9.062;2023-05-13T06:05:03;10.50;99.90
22114;DHT22;11223;49.968;9.062;2023-05-13T06:07:29;10.60;99.90
22114;DHT22;11223;49.968;9.062;2023-05-13T06:09:54;10.70;99.90
22114;DHT22;11223;49.968;9.062;2023-05-13T06:12:20;10.80;99.90
22114;DHT22;11223;49.968;9.062;2023-05-13T06:14:47;10.80;99.90
22114;DHT22;11223;49.968;9.062;2023-05-13T06:17:13;10.90;99.90
22114;DHT22;11223;49.968;9.062;2023-05-13T06:19:42;11.00;99.90
22114;DHT22;11223;49.968;9.062;2023-05-13T06:22:08;11.00;99.90
22114;DHT22;11223;49.968;9.062;2023-05-13T06:24:34;11.10;99.90
22114;DHT22;11223;49.968;9.062;2023-05-13T06:27:00;11.20;99.90
22114;DHT22;11223;49.968;9.062;2023-05-13T06:29:26;11.30;99.90
22114;DHT22;11223;49.968;9.062;2023-05-13T06:31:52;11.40;99.90
22114;DHT22;11223;49.968;9.062;2023-05-13T06:34:18;11.50;99.90
22114;DHT22;11223;49.968;9.062;2023-05-13T06:36:43;11.60;99.90
22114;DHT22;11223;49.968;9.062;2023-05-13T06:39:10;11.70;99.90
22114;DHT22;11223;49.968;9.062;2023-05-13T06:41:36;11.80;99.90
22114;DHT22;11223;49.968;9.062;2023-05-13T06:44:02;11.90;99.90
22114;DHT22;11223;49.968;9.062;2023-05-13T06:46:28;12.10;99.90
22114;DHT22;11223;49.968;9.062;2023-05-13T06:48:54;12.20;99.90
22114;DHT22;11223;49.968;9.062;2023-05-13T06:51:21;12.40;99.90
22114;DHT22;11223;49.968;9.062;2023-05-13T06:53:46;12.50;99.90
22114;DHT22;11223;49.968;9.062;2023-05-13T06:56:12;12.60;99.90
22114;DHT22;11223;49.968;9.062;2023-05-13T06:58:38;12.80;99.90
22114;DHT22;11223;49.968;9.062;2023-05-13T07:01:03;12.90;99.90
22114;DHT22;11223;49.968;9.062;2023-05-13T07:03:29;13.00;99.90
22114;DHT22;11223;49.968;9.062;2023-05-13T07:05:55;13.20;99.90
22114;DHT22;11223;49.968;9.062;2023-05-13T07:08:21;13.40;99.90
22114;DHT22;11223;49.968;9.062;2023-05-13T07:10:46;13.60;99.90
22114;DHT22;11223;49.968;9.062;2023-05-13T07:13:12;13.80;99.90
22114;DHT22;11223;49.968;9.062;2023-05-13T07:15:38;13.90;99.90
22114;DHT22;11223;49.968;9.062;2023-05-13T07:18:03;14.10;99.90
22114;DHT22;11223;49.968;9.062;2023-05-13T07:20:29;14.30;99.90
22114;DHT22;11223;49.968;9.062;2023-05-13T07:22:55;14.40;99.90
22114;DHT22;11223;49.968;9.062;2023-05-13T07:25:21;14.60;99.90
22114;DHT22;11223;49.968;9.062;2023-05-13T07:27:46;14.70;99.90
22114;DHT22;11223;49.968;9.062;2023-05-13T07:30:12;14.90;99.90
22114;DHT22;11223;49.968;9.062;2023-05-13T07:32:38;15.10;99.90
22114;DHT22;11223;49.968;9.062;2023-05-13T07:35:05;15.20;99.90
22114;DHT22;11223;49.968;9.062;2023-05-13T07:37:30;15.40;99.90
22114;DHT22;11223;49.968;9.062;2023-05-13T07:39:56;15.60;99.90
22114;DHT22;11223;49.968;9.062;2023-05-13T07:42:22;15.70;99.90
22114;DHT22;11223;49.968;9.062;2023-05-13T07:44:48;15.80;99.90
22114;DHT22;11223;49.968;9.062;2023-05-13T07:47:14;15.80;99.90
22114;DHT22;11223;49.968;9.062;2023-05-13T07:49:39;15.90;99.90
22114;DHT22;11223;49.968;9.062;2023-05-13T07:52:05;16.10;99.90
22114;DHT22;11223;49.968;9.062;2023-05-13T07:54:31;16.10;99.90
22114;DHT22;11223;49.968;9.062;2023-05-13T07:56:56;16.30;99.90
22114;DHT22;11223;49.968;9.062;2023-05-13T07:59:22;16.50;99.90
22114;DHT22;11223;49.968;9.062;2023-05-13T08:01:47;16.70;99.90
22114;DHT22;11223;49.968;9.062;2023-05-13T08:04:13;17.00;99.90
22114;DHT22;11223;49.968;9.062;2023-05-13T08:06:39;17.20;99.90
22114;DHT22;11223;49.968;9.062;2023-05-13T08:09:04;17.40;99.90
22114;DHT22;11223;49.968;9.062;2023-05-13T08:11:30;17.50;99.90
22114;DHT22;11223;49.968;9.062;2023-05-13T08:13:56;17.60;99.90
22114;DHT22;11223;49.968;9.062;2023-05-13T08:16:22;17.70;99.90
22114;DHT22;11223;49.968;9.062;2023-05-13T08:18:47;17.80;99.90
22114;DHT22;11223;49.968;9.062;2023-05-13T08:21:13;17.80;99.90
22114;DHT22;11223;49.968;9.062;2023-05-13T08:23:39;17.80;99.90
22114;DHT22;11223;49.968;9.062;2023-05-13T08:26:04;18.00;99.90
22114;DHT22;11223;49.968;9.062;2023-05-13T08:28:30;18.10;99.90
22114;DHT22;11223;49.968;9.062;2023-05-13T08:30:55;18.20;99.90
22114;DHT22;11223;49.968;9.062;2023-05-13T08:33:30;18.30;99.90
22114;DHT22;11223;49.968;9.062;2023-05-13T08:35:57;18.50;99.90
22114;DHT22;11223;49.968;9.062;2023-05-13T08:38:23;18.60;99.90
22114;DHT22;11223;49.968;9.062;2023-05-13T08:40:49;18.70;99.90
22114;DHT22;11223;49.968;9.062;2023-05-13T08:43:15;18.80;99.90
22114;DHT22;11223;49.968;9.062;2023-05-13T08:45:44;19.00;99.90
22114;DHT22;11223;49.968;9.062;2023-05-13T08:48:13;19.20;99.90
22114;DHT22;11223;49.968;9.062;2023-05-13T08:50:40;19.20;99.90
22114;DHT22;11223;49.968;9.062;2023-05-13T08:53:06;19.20;99.90
22114;DHT22;11223;49.968;9.062;2023-05-13T08:55:32;19.20;99.90
22114;DHT22;11223;49.968;9.062;2023-05-13T08:57:58;19.30;99.90
22114;DHT22;11223;49.968;9.062;2023-05-13T09:00:23;19.50;99.90
22114;DHT22;11223;49.968;9.062;2023-05-13T09:02:49;19.50;99.90
22114;DHT22;11223;49.968;9.062;2023-05-13T09:05:16;19.60;99.90
22114;DHT22;11223;49.968;9.062;2023-05-13T09:07:42;19.70;99.90
22114;DHT22;11223;49.968;9.062;2023-05-13T09:10:08;19.90;98.90
22114;DHT22;11223;49.968;9.062;2023-05-13T09:12:41;19.90;98.80
22114;DHT22;11223;49.968;9.062;2023-05-13T09:15:08;20.00;97.80
22114;DHT22;11223;49.968;9.062;2023-05-13T09:17:41;20.00;98.20
22114;DHT22;11223;49.968;9.062;2023-05-13T09:20:10;20.10;98.70
22114;DHT22;11223;49.968;9.062;2023-05-13T09:22:40;20.30;96.80
22114;DHT22;11223;49.968;9.062;2023-05-13T09:25:09;20.40;96.90
22114;DHT22;11223;49.968;9.062;2023-05-13T09:27:37;20.50;95.90
22114;DHT22;11223;49.968;9.062;2023-05-13T09:30:03;20.60;95.30
22114;DHT22;11223;49.968;9.062;2023-05-13T09:32:30;20.50;93.70
22114;DHT22;11223;49.968;9.062;2023-05-13T09:34:56;20.60;95.20
22114;DHT22;11223;49.968;9.062;2023-05-13T09:37:22;20.70;95.70
22114;DHT22;11223;49.968;9.062;2023-05-13T09:39:51;20.80;95.40
22114;DHT22;11223;49.968;9.062;2023-05-13T09:42:19;20.90;94.50
22114;DHT22;11223;49.968;9.062;2023-05-13T09:44:46;21.00;93.50
22114;DHT22;11223;49.968;9.062;2023-05-13T09:47:15;21.10;91.90
22114;DHT22;11223;49.968;9.062;2023-05-13T09:49:44;21.00;91.40
22114;DHT22;11223;49.968;9.062;2023-05-13T09:52:10;21.00;92.20
22114;DHT22;11223;49.968;9.062;2023-05-13T09:54:38;21.20;91.80
22114;DHT22;11223;49.968;9.062;2023-05-13T09:57:04;21.20;91.80
22114;DHT22;11223;49.968;9.062;2023-05-13T09:59:33;21.20;90.30
22114;DHT22;11223;49.968;9.062;2023-05-13T10:02:05;21.20;90.40
22114;DHT22;11223;49.968;9.062;2023-05-13T10:04:31;21.20;91.40
22114;DHT22;11223;49.968;9.062;2023-05-13T10:07:02;21.20;89.50
22114;DHT22;11223;49.968;9.062;2023-05-13T10:09:30;21.00;89.40
22114;DHT22;11223;49.968;9.062;2023-05-13T10:11:57;20.90;92.10
22114;DHT22;11223;49.968;9.062;2023-05-13T10:14:23;21.00;92.50
22114;DHT22;11223;49.968;9.062;2023-05-13T10:16:50;21.20;91.90
22114;DHT22;11223;49.968;9.062;2023-05-13T10:19:17;21.40;89.20
22114;DHT22;11223;49.968;9.062;2023-05-13T10:21:43;21.60;89.20
22114;DHT22;11223;49.968;9.062;2023-05-13T10:24:08;21.70;89.20
22114;DHT22;11223;49.968;9.062;2023-05-13T10:26:34;21.80;90.00
22114;DHT22;11223;49.968;9.062;2023-05-13T10:29:00;21.90;87.40
22114;DHT22;11223;49.968;9.062;2023-05-13T10:31:27;22.10;87.10
22114;DHT22;11223;49.968;9.062;2023-05-13T10:33:53;22.20;87.40
22114;DHT22;11223;49.968;9.062;2023-05-13T10:42:39;22.80;77.40
22114;DHT22;11223;49.968;9.062;2023-05-13T10:45:06;22.90;79.70
22114;DHT22;11223;49.968;9.062;2023-05-13T10:47:32;22.70;79.30
22114;DHT22;11223;49.968;9.062;2023-05-13T10:49:58;22.50;78.10
22114;DHT22;11223;49.968;9.062;2023-05-13T10:52:47;22.50;79.40
22114;DHT22;11223;49.968;9.062;2023-05-13T10:55:18;22.40;79.70
22114;DHT22;11223;49.968;9.062;2023-05-13T10:58:03;22.20;75.00
22114;DHT22;11223;49.968;9.062;2023-05-13T11:00:30;22.10;76.60
22114;DHT22;11223;49.968;9.062;2023-05-13T11:02:56;22.30;77.40
22114;DHT22;11223;49.968;9.062;2023-05-13T11:05:21;22.70;74.30
22114;DHT22;11223;49.968;9.062;2023-05-13T11:07:56;23.00;75.30
22114;DHT22;11223;49.968;9.062;2023-05-13T11:10:26;23.20;70.60
22114;DHT22;11223;49.968;9.062;2023-05-13T11:15:46;23.40;71.80
22114;DHT22;11223;49.968;9.062;2023-05-13T11:18:13;23.30;69.60
22114;DHT22;11223;49.968;9.062;2023-05-13T11:20:39;23.10;72.90
22114;DHT22;11223;49.968;9.062;2023-05-13T11:23:05;23.00;73.00
22114;DHT22;11223;49.968;9.062;2023-05-13T11:25:32;23.10;73.20
22114;DHT22;11223;49.968;9.062;2023-05-13T11:27:58;23.20;72.80
22114;DHT22;11223;49.968;9.062;2023-05-13T11:30:27;23.30;69.80
22114;DHT22;11223;49.968;9.062;2023-05-13T11:32:57;23.00;70.60
22114;DHT22;11223;49.968;9.062;2023-05-13T11:35:27;22.70;72.00
22114;DHT22;11223;49.968;9.062;2023-05-13T11:37:54;22.30;70.00
22114;DHT22;11223;49.968;9.062;2023-05-13T11:40:33;22.00;71.10
22114;DHT22;11223;49.968;9.062;2023-05-13T11:43:00;21.70;72.50
22114;DHT22;11223;49.968;9.062;2023-05-13T11:45:26;21.50;72.60
22114;DHT22;11223;49.968;9.062;2023-05-13T11:47:53;21.30;73.90
22114;DHT22;11223;49.968;9.062;2023-05-13T11:50:26;21.10;76.90
22114;DHT22;11223;49.968;9.062;2023-05-13T11:52:53;21.00;76.60
22114;DHT22;11223;49.968;9.062;2023-05-13T11:55:32;21.00;75.10
22114;DHT22;11223;49.968;9.062;2023-05-13T11:57:59;20.90;75.50
22114;DHT22;11223;49.968;9.062;2023-05-13T12:00:29;20.80;74.40
22114;DHT22;11223;49.968;9.062;2023-05-13T12:02:56;20.60;75.50
22114;DHT22;11223;49.968;9.062;2023-05-13T12:05:23;20.70;74.10
22114;DHT22;11223;49.968;9.062;2023-05-13T12:07:48;20.80;73.80
22114;DHT22;11223;49.968;9.062;2023-05-13T12:10:15;20.80;75.00
22114;DHT22;11223;49.968;9.062;2023-05-13T12:12:44;20.80;75.10
22114;DHT22;11223;49.968;9.062;2023-05-13T12:15:14;21.00;73.80
22114;DHT22;11223;49.968;9.062;2023-05-13T12:17:41;21.20;75.00
22114;DHT22;11223;49.968;9.062;2023-05-13T12:20:14;21.50;74.90
22114;DHT22;11223;49.968;9.062;2023-05-13T12:28:09;22.10;75.70
22114;DHT22;11223;49.968;9.062;2023-05-13T12:30:37;22.30;76.90
22114;DHT22;11223;49.968;9.062;2023-05-13T12:33:03;22.30;74.00
22114;DHT22;11223;49.968;9.062;2023-05-13T12:35:30;22.10;74.30
22114;DHT22;11223;49.968;9.062;2023-05-13T12:38:05;21.90;74.70
22114;DHT22;11223;49.968;9.062;2023-05-13T12:40:31;21.60;72.10
22114;DHT22;11223;49.968;9.062;2023-05-13T12:42:58;21.20;73.90
22114;DHT22;11223;49.968;9.062;2023-05-13T12:45:31;20.90;73.20
22114;DHT22;11223;49.968;9.062;2023-05-13T12:47:58;20.70;73.90
22114;DHT22;11223;49.968;9.062;2023-05-13T12:50:24;20.50;76.00
22114;DHT22;11223;49.968;9.062;2023-05-13T12:52:50;20.20;75.80
22114;DHT22;11223;49.968;9.062;2023-05-13T12:55:16;20.00;78.30
22114;DHT22;11223;49.968;9.062;2023-05-13T12:57:42;19.70;80.10
22114;DHT22;11223;49.968;9.062;2023-05-13T13:00:10;19.40;83.80
22114;DHT22;11223;49.968;9.062;2023-05-13T13:02:38;19.20;83.90
22114;DHT22;11223;49.968;9.062;2023-05-13T13:05:04;19.00;82.50
22114;DHT22;11223;49.968;9.062;2023-05-13T13:07:30;18.90;82.40
22114;DHT22;11223;49.968;9.062;2023-05-13T13:09:55;18.80;82.80
22114;DHT22;11223;49.968;9.062;2023-05-13T13:12:21;18.70;82.60
22114;DHT22;11223;49.968;9.062;2023-05-13T13:14:47;18.50;84.10
22114;DHT22;11223;49.968;9.062;2023-05-13T13:17:13;18.50;88.30
22114;DHT22;11223;49.968;9.062;2023-05-13T13:19:38;18.40;88.80
22114;DHT22;11223;49.968;9.062;2023-05-13T13:22:04;18.40;89.30
22114;DHT22;11223;49.968;9.062;2023-05-13T13:24:30;18.30;89.30
22114;DHT22;11223;49.968;9.062;2023-05-13T14:05:06;19.10;83.20
22114;DHT22;11223;49.968;9.062;2023-05-13T14:07:32;19.20;86.50
22114;DHT22;11223;49.968;9.062;2023-05-13T14:09:57;19.20;87.70
22114;DHT22;11223;49.968;9.062;2023-05-13T14:12:23;19.20;86.60
22114;DHT22;11223;49.968;9.062;2023-05-13T14:14:48;19.30;84.60
22114;DHT22;11223;49.968;9.062;2023-05-13T14:17:14;19.40;84.00
22114;DHT22;11223;49.968;9.062;2023-05-13T14:19:39;19.30;86.80
22114;DHT22;11223;49.968;9.062;2023-05-13T14:22:05;19.40;87.40
22114;DHT22;11223;49.968;9.062;2023-05-13T14:24:31;19.40;85.30
22114;DHT22;11223;49.968;9.062;2023-05-13T14:26:57;19.40;84.00
22114;DHT22;11223;49.968;9.062;2023-05-13T14:29:24;19.40;86.00
22114;DHT22;11223;49.968;9.062;2023-05-13T14:31:50;19.40;85.90
22114;DHT22;11223;49.968;9.062;2023-05-13T14:34:16;19.40;82.70
22114;DHT22;11223;49.968;9.062;2023-05-13T14:36:41;19.30;83.40
22114;DHT22;11223;49.968;9.062;2023-05-13T14:39:07;19.30;83.60
22114;DHT22;11223;49.968;9.062;2023-05-13T14:41:35;19.20;82.50
22114;DHT22;11223;49.968;9.062;2023-05-13T14:44:00;19.20;83.50
22114;DHT22;11223;49.968;9.062;2023-05-13T14:46:26;19.10;83.60
22114;DHT22;11223;49.968;9.062;2023-05-13T14:48:52;19.20;84.90
22114;DHT22;11223;49.968;9.062;2023-05-13T14:51:18;19.30;84.80
22114;DHT22;11223;49.968;9.062;2023-05-13T14:53:43;19.40;86.20
22114;DHT22;11223;49.968;9.062;2023-05-13T14:56:09;19.40;85.40
22114;DHT22;11223;49.968;9.062;2023-05-13T14:58:35;19.40;85.30
22114;DHT22;11223;49.968;9.062;2023-05-13T15:01:00;19.40;84.70
22114;DHT22;11223;49.968;9.062;2023-05-13T15:03:26;19.40;85.60
22114;DHT22;11223;49.968;9.062;2023-05-13T15:05:52;19.40;83.20
22114;DHT22;11223;49.968;9.062;2023-05-13T15:08:18;19.40;85.00
22114;DHT22;11223;49.968;9.062;2023-05-13T15:10:44;19.40;82.60
22114;DHT22;11223;49.968;9.062;2023-05-13T15:13:10;19.40;83.30
22114;DHT22;11223;49.968;9.062;2023-05-13T15:15:36;19.40;85.20
22114;DHT22;11223;49.968;9.062;2023-05-13T15:18:01;19.40;83.80
22114;DHT22;11223;49.968;9.062;2023-05-13T15:20:27;19.40;85.20
22114;DHT22;11223;49.968;9.062;2023-05-13T15:22:53;19.40;84.10
22114;DHT22;11223;49.968;9.062;2023-05-13T15:25:19;19.40;84.40
22114;DHT22;11223;49.968;9.062;2023-05-13T15:27:44;19.40;83.80
22114;DHT22;11223;49.968;9.062;2023-05-13T15:30:11;19.40;82.30
22114;DHT22;11223;49.968;9.062;2023-05-13T15:32:36;19.30;82.20
22114;DHT22;11223;49.968;9.062;2023-05-13T15:35:02;19.20;83.30
22114;DHT22;11223;49.968;9.062;2023-05-13T15:37:27;19.20;83.90
22114;DHT22;11223;49.968;9.062;2023-05-13T15:39:53;19.10;84.40
22114;DHT22;11223;49.968;9.062;2023-05-13T15:42:19;19.10;83.90
22114;DHT22;11223;49.968;9.062;2023-05-13T15:44:45;19.00;84.00
22114;DHT22;11223;49.968;9.062;2023-05-13T15:47:11;19.00;84.30
22114;DHT22;11223;49.968;9.062;2023-05-13T15:49:36;18.90;85.60
22114;DHT22;11223;49.968;9.062;2023-05-13T15:52:02;18.80;87.30
22114;DHT22;11223;49.968;9.062;2023-05-13T15:54:28;18.70;86.60
22114;DHT22;11223;49.968;9.062;2023-05-13T15:56:54;18.70;89.60
22114;DHT22;11223;49.968;9.062;2023-05-13T15:59:21;18.60;89.80
22114;DHT22;11223;49.968;9.062;2023-05-13T16:01:47;18.60;90.00
22114;DHT22;11223;49.968;9.062;2023-05-13T16:04:12;18.60;90.20
22114;DHT22;11223;49.968;9.062;2023-05-13T16:06:38;18.60;90.80
22114;DHT22;11223;49.968;9.062;2023-05-13T16:09:04;18.60;90.30
22114;DHT22;11223;49.968;9.062;2023-05-13T16:11:29;18.60;90.40
22114;DHT22;11223;49.968;9.062;2023-05-13T16:13:55;18.50;91.70
22114;DHT22;11223;49.968;9.062;2023-05-13T16:16:21;18.40;91.20
22114;DHT22;11223;49.968;9.062;2023-05-13T16:18:47;18.40;91.60
22114;DHT22;11223;49.968;9.062;2023-05-13T16:21:12;18.40;91.00
22114;DHT22;11223;49.968;9.062;2023-05-13T16:23:38;18.50;90.50
22114;DHT22;11223;49.968;9.062;2023-05-13T16:26:04;18.60;90.50
22114;DHT22;11223;49.968;9.062;2023-05-13T16:28:29;18.70;90.40
22114;DHT22;11223;49.968;9.062;2023-05-13T16:30:55;18.80;91.50